Nearby METAR Reports

 

GCLP - Las Palmas/Gando, Spain
Distance from station: NE 26km
Updated: 13/04/2024 18:30
Clear
Clear
 Wind from NNE
Wind: NNE 20 km/h
Temperature: 23°C
Dew Point: 19°C
Humidity: 78%
Barometer: 1013 hPa
Summary: Clear
Visibility: greater than 10 km
2024/04/13 18:30 GCLP 131830Z 03011KT CAVOK 23/19 Q1013 NOSIG
GCTS - Tenerife Sur/Rei, Spain
Distance from station: WNW 102km
Updated: 13/04/2024 18:30
Clear
Clear
 Wind from S
Wind: S 7 km/h
Temperature: 22°C
Dew Point: 19°C
Humidity: 83%
Barometer: 1014 hPa
Summary: Clear
Visibility: greater than 10 km
2024/04/13 18:30 GCTS 131830Z 19004KT 140V240 CAVOK 22/19 Q1014 NOSIG
 
GCXO - Tenerife/Los Rod, Spain
Distance from station: NW 110km
Updated: 13/04/2024 18:30
Partly cloudy
Partly cloudy
 Wind from WNW
Wind: WNW 15 km/h
Temperature: 29°C
Dew Point: -1°C
Humidity: 14%
Barometer: 1016 hPa
Clouds: Partly cloudy
Visibility: 9 km
2024/04/13 18:30 GCXO 131830Z 30008KT 270V330 9000 NSC 29/M01 Q1016 NOSIG
GCGM - La Gomera Arpt, Spain
Distance from station: W 164km
Updated: 13/04/2024 18:30
Clear
Clear
 Wind from varies
Wind: varies 2 km/h
Temperature: 23°C
Dew Point: 19°C
Humidity: 78%
Barometer: 1014 hPa
Summary: Clear
Visibility: greater than 10 km
2024/04/13 18:30 GCGM 131830Z AUTO VRB01KT CAVOK 23/19 Q1014 RMK R09/VRB01KT ARP/VRB01KT
 
GCFV - Fuerteventura Ar, Spain
Distance from station: ENE 183km
Updated: 13/04/2024 18:30
Partly cloudy
Partly cloudy
 Wind from NE
Wind: NE 6 km/h
Temperature: 23°C
Dew Point: 12°C
Humidity: 50%
Barometer: 1012 hPa
Clouds: Partly cloudy
Visibility: 9 km
2024/04/13 18:30 GCFV 131830Z 05003KT 020V080 9000 NSC 23/12 Q1012
GCHI - Hierro Airport, Spain
Distance from station: W 226km
Updated: 13/04/2024 18:30
Clear
Clear
 Wind from ESE
Wind: ESE 7 km/h
Temperature: 22°C
Dew Point: 19°C
Humidity: 83%
Barometer: 1014 hPa
Summary: Clear
Visibility: greater than 10 km
2024/04/13 18:30 GCHI 131830Z AUTO 12004KT 070V150 CAVOK 22/19 Q1014
 
GCLA - La Palma Airport, Spain
Distance from station: WNW 233km
Updated: 13/04/2024 18:30
Clear
Clear
 Wind from NNE
Wind: NNE 11 km/h
Temperature: 21°C
Dew Point: 19°C
Humidity: 88%
Barometer: 1014 hPa
Summary: Clear
Visibility: greater than 10 km
2024/04/13 18:30 GCLA 131830Z 03006KT 350V080 CAVOK 21/19 Q1014
GCRR - Arrecife/Lanzaro, Spain
Distance from station: NE 234km
Updated: 13/04/2024 18:30
Haze, Partly cloudy
Haze, Partly cloudy
 Wind from ESE
Wind: ESE 7 km/h
Temperature: 22°C
Dew Point: 20°C
Humidity: 88%
Barometer: 1013 hPa
Summary: Haze
Clouds: Partly cloudy
Visibility: 4 km
2024/04/13 18:30 GCRR 131830Z 12004KT 4000 HZ NSC 22/20 Q1013
 
LPMA - Funchal/Madeira, Portugal
Distance from station: NNW 556km
Updated: 13/04/2024 18:30
Clear
Clear
 Wind from NE
Wind: NE 26 km/h
Temperature: 20°C
Dew Point: 15°C
Humidity: 73%
Barometer: 1016 hPa
Summary: Clear
Visibility: greater than 10 km
2024/04/13 18:30 LPMA 131830Z 04014KT CAVOK 20/15 Q1016
LPPS - Porto Santo Isla, Portugal
Distance from station: N 594km
Updated: 13/04/2024 18:30
Clear
Clear
 Wind from E
Wind: E 28 km/h
Temperature: 20°C
Dew Point: 15°C
Humidity: 73%
Barometer: 1016 hPa
Summary: Clear
Visibility: greater than 10 km
2024/04/13 18:30 LPPS 131830Z 08015KT CAVOK 20/15 Q1016